CMP326 MMUN-MPTO
Flight info
| Callsign | CMP326 |
|---|---|
| Flight time | 2h 13m |
| Altitude | 37000 |
| Route | TAKUX2A TAKUX UM782 OMIRO UN420 PELRA DCT SPP DCT MORLI OSUPA2C |
| Aircraft | B738/M-SDE2E3FGHIRWXY/LB1 |
Departure
| Time | 2026-05-04 22:17 |
|---|---|
| Airport | Cancún International Airport (MMUN) |
Arrival
| Time | 2026-05-05 00:30 |
|---|---|
| Airport | Tocumen International Airport (MPTO) |
| Time | Latitude | Longitude | Altitude | Speed | Heading |
|---|---|---|---|---|---|
| 2026-05-04 22:02 | 21.04014 | -86.87703 | 42 ft | 0 kts | 102° |
| 2026-05-04 22:09 | 21.04018 | -86.87720 | 42 ft | 4 kts | 110° |
| 2026-05-04 22:09 | 21.04030 | -86.87745 | 38 ft | 4 kts | 133° |
| 2026-05-04 22:09 | 21.04051 | -86.87761 | 37 ft | 4 kts | 167° |
| 2026-05-04 22:09 | 21.04076 | -86.87760 | 40 ft | 4 kts | 208° |
| 2026-05-04 22:10 | 21.04080 | -86.87757 | 40 ft | 1 kts | 213° |
| 2026-05-04 22:11 | 21.04068 | -86.87766 | 39 ft | 7 kts | 213° |
| 2026-05-04 22:12 | 21.04020 | -86.87800 | 42 ft | 9 kts | 213° |
| 2026-05-04 22:12 | 21.03972 | -86.87839 | 41 ft | 9 kts | 230° |
| 2026-05-04 22:12 | 21.03976 | -86.87897 | 39 ft | 9 kts | 304° |
| 2026-05-04 22:12 | 21.04009 | -86.87950 | 41 ft | 8 kts | 303° |
| 2026-05-04 22:13 | 21.04041 | -86.88000 | 39 ft | 8 kts | 304° |
| 2026-05-04 22:13 | 21.04072 | -86.88050 | 41 ft | 8 kts | 304° |
| 2026-05-04 22:13 | 21.04103 | -86.88097 | 41 ft | 8 kts | 304° |
| 2026-05-04 22:13 | 21.04146 | -86.88165 | 41 ft | 18 kts | 304° |
| 2026-05-04 22:14 | 21.04219 | -86.88282 | 41 ft | 19 kts | 303° |
| 2026-05-04 22:14 | 21.04290 | -86.88396 | 41 ft | 18 kts | 303° |
| 2026-05-04 22:14 | 21.04359 | -86.88507 | 41 ft | 18 kts | 303° |
| 2026-05-04 22:14 | 21.04427 | -86.88614 | 41 ft | 17 kts | 304° |
| 2026-05-04 22:15 | 21.04492 | -86.88717 | 41 ft | 16 kts | 304° |
| 2026-05-04 22:15 | 21.04555 | -86.88817 | 41 ft | 16 kts | 303° |
| 2026-05-04 22:15 | 21.04614 | -86.88914 | 41 ft | 15 kts | 302° |
| 2026-05-04 22:15 | 21.04620 | -86.89012 | 39 ft | 15 kts | 229° |
| 2026-05-04 22:16 | 21.04526 | -86.89070 | 35 ft | 16 kts | 173° |
| 2026-05-04 22:16 | 21.04435 | -86.88947 | 36 ft | 43 kts | 123° |
| 2026-05-04 22:16 | 21.04144 | -86.88480 | 38 ft | 108 kts | 124° |
| 2026-05-04 22:16 | 21.03619 | -86.87645 | 42 ft | 160 kts | 125° |
| 2026-05-04 22:17 | 21.02989 | -86.86597 | 583 ft | 163 kts | 115° |
| 2026-05-04 22:17 | 21.02482 | -86.85493 | 1297 ft | 165 kts | 118° |
| 2026-05-04 22:17 | 21.01916 | -86.84410 | 1991 ft | 172 kts | 120° |
| 2026-05-04 22:17 | 21.01280 | -86.83202 | 2255 ft | 200 kts | 120° |
| 2026-05-04 22:18 | 21.00559 | -86.81829 | 2425 ft | 223 kts | 119° |
| 2026-05-04 22:18 | 20.99766 | -86.80310 | 2595 ft | 245 kts | 119° |
| 2026-05-04 22:18 | 20.98906 | -86.78661 | 2925 ft | 261 kts | 119° |
| 2026-05-04 22:18 | 20.98009 | -86.76936 | 3522 ft | 267 kts | 119° |
| 2026-05-04 22:19 | 20.97102 | -86.75192 | 4223 ft | 270 kts | 119° |
| 2026-05-04 22:19 | 20.96183 | -86.73426 | 4788 ft | 274 kts | 119° |
| 2026-05-04 22:19 | 20.95195 | -86.71678 | 5205 ft | 276 kts | 124° |
| 2026-05-04 22:19 | 20.94105 | -86.70009 | 5855 ft | 279 kts | 126° |
| 2026-05-04 22:20 | 20.92964 | -86.68312 | 6530 ft | 283 kts | 126° |
| 2026-05-04 22:20 | 20.91806 | -86.66592 | 7182 ft | 289 kts | 126° |
| 2026-05-04 22:20 | 20.90625 | -86.64830 | 7866 ft | 293 kts | 126° |
| 2026-05-04 22:20 | 20.89433 | -86.63044 | 8313 ft | 295 kts | 126° |
| 2026-05-04 22:21 | 20.88247 | -86.61260 | 8487 ft | 295 kts | 126° |
| 2026-05-04 22:21 | 20.87054 | -86.59463 | 8486 ft | 296 kts | 126° |
| 2026-05-04 22:21 | 20.85864 | -86.57667 | 8486 ft | 296 kts | 126° |
| 2026-05-04 22:21 | 20.84669 | -86.55864 | 8488 ft | 296 kts | 126° |
| 2026-05-04 22:22 | 20.83490 | -86.54083 | 8489 ft | 296 kts | 126° |
| 2026-05-04 22:22 | 20.82298 | -86.52285 | 8491 ft | 296 kts | 126° |
| 2026-05-04 22:22 | 20.81106 | -86.50485 | 8488 ft | 296 kts | 126° |
| 2026-05-04 22:22 | 20.79916 | -86.48688 | 8483 ft | 296 kts | 126° |
| 2026-05-04 22:23 | 20.78726 | -86.46891 | 8481 ft | 296 kts | 126° |
| 2026-05-04 22:23 | 20.77537 | -86.45099 | 8479 ft | 295 kts | 126° |
| 2026-05-04 22:23 | 20.76350 | -86.43311 | 8488 ft | 295 kts | 126° |
| 2026-05-04 22:23 | 20.75164 | -86.41524 | 8488 ft | 294 kts | 126° |
| 2026-05-04 22:24 | 20.73977 | -86.39736 | 8525 ft | 296 kts | 126° |
| 2026-05-04 22:24 | 20.72775 | -86.37924 | 9092 ft | 300 kts | 126° |
| 2026-05-04 22:24 | 20.71570 | -86.36108 | 9915 ft | 300 kts | 126° |
| 2026-05-04 22:24 | 20.70363 | -86.34293 | 10395 ft | 312 kts | 126° |
| 2026-05-04 22:25 | 20.68996 | -86.32375 | 10532 ft | 335 kts | 136° |
| 2026-05-04 22:25 | 20.67025 | -86.30977 | 10868 ft | 347 kts | 155° |
| 2026-05-04 22:25 | 20.64827 | -86.29853 | 11428 ft | 353 kts | 156° |
| 2026-05-04 22:25 | 20.62589 | -86.28734 | 12076 ft | 356 kts | 156° |
| 2026-05-04 22:26 | 20.60325 | -86.27602 | 12732 ft | 360 kts | 156° |
| 2026-05-04 22:26 | 20.58046 | -86.26455 | 13378 ft | 365 kts | 156° |
| 2026-05-04 22:26 | 20.55765 | -86.25299 | 13985 ft | 369 kts | 156° |
| 2026-05-04 22:26 | 20.53432 | -86.24110 | 14581 ft | 373 kts | 156° |
| 2026-05-04 22:27 | 20.51081 | -86.22909 | 14929 ft | 376 kts | 156° |
| 2026-05-04 22:27 | 20.48719 | -86.21700 | 14965 ft | 375 kts | 156° |
| 2026-05-04 22:27 | 20.46359 | -86.20491 | 14979 ft | 376 kts | 156° |
| 2026-05-04 22:27 | 20.43996 | -86.19281 | 14984 ft | 376 kts | 156° |
| 2026-05-04 22:28 | 20.41635 | -86.18072 | 14987 ft | 376 kts | 156° |
| 2026-05-04 22:28 | 20.39279 | -86.16866 | 14988 ft | 376 kts | 156° |
| 2026-05-04 22:28 | 20.36919 | -86.15658 | 14985 ft | 376 kts | 156° |
| 2026-05-04 22:28 | 20.34578 | -86.14461 | 14985 ft | 376 kts | 156° |
| 2026-05-04 22:29 | 20.32217 | -86.13254 | 14986 ft | 376 kts | 156° |
| 2026-05-04 22:29 | 20.29859 | -86.12048 | 14986 ft | 375 kts | 156° |
| 2026-05-04 22:29 | 20.27500 | -86.10843 | 14986 ft | 375 kts | 156° |
| 2026-05-04 22:29 | 20.25146 | -86.09641 | 14985 ft | 375 kts | 156° |
| 2026-05-04 22:30 | 20.22788 | -86.08436 | 14985 ft | 375 kts | 156° |
| 2026-05-04 22:30 | 20.20581 | -86.06927 | 15036 ft | 382 kts | 140° |
| 2026-05-04 22:30 | 20.18633 | -86.05030 | 15587 ft | 386 kts | 139° |
| 2026-05-04 22:30 | 20.16667 | -86.03077 | 16273 ft | 387 kts | 139° |
| 2026-05-04 22:31 | 20.14690 | -86.01129 | 16905 ft | 389 kts | 139° |
| 2026-05-04 22:31 | 20.12681 | -85.99173 | 17469 ft | 394 kts | 140° |
| 2026-05-04 22:31 | 20.10637 | -85.97202 | 18024 ft | 398 kts | 140° |
| 2026-05-04 22:31 | 20.08575 | -85.95224 | 18529 ft | 402 kts | 140° |
| 2026-05-04 22:32 | 20.06487 | -85.93226 | 19013 ft | 405 kts | 140° |
| 2026-05-04 22:32 | 20.04383 | -85.91213 | 19465 ft | 409 kts | 140° |
| 2026-05-04 22:32 | 20.02251 | -85.89175 | 19898 ft | 414 kts | 140° |
| 2026-05-04 22:32 | 20.00089 | -85.87125 | 20338 ft | 418 kts | 140° |
| 2026-05-04 22:33 | 19.97898 | -85.85057 | 20783 ft | 422 kts | 140° |
| 2026-05-04 22:33 | 19.95686 | -85.82975 | 21217 ft | 427 kts | 140° |
| 2026-05-04 22:33 | 19.93478 | -85.80897 | 21641 ft | 431 kts | 140° |
| 2026-05-04 22:33 | 19.91219 | -85.78770 | 22067 ft | 435 kts | 140° |
| 2026-05-04 22:34 | 19.88942 | -85.76626 | 22489 ft | 439 kts | 140° |
| 2026-05-04 22:34 | 19.86646 | -85.74464 | 22900 ft | 443 kts | 140° |
| 2026-05-04 22:34 | 19.84327 | -85.72280 | 23308 ft | 447 kts | 140° |
| 2026-05-04 22:34 | 19.81977 | -85.70067 | 23682 ft | 451 kts | 140° |
| 2026-05-04 22:35 | 19.79621 | -85.67849 | 24029 ft | 454 kts | 139° |
| 2026-05-04 22:35 | 19.77273 | -85.65640 | 24396 ft | 457 kts | 139° |
| 2026-05-04 22:35 | 19.74889 | -85.63397 | 24761 ft | 459 kts | 139° |
| 2026-05-04 22:35 | 19.72488 | -85.61140 | 25115 ft | 462 kts | 139° |
| 2026-05-04 22:36 | 19.70076 | -85.58872 | 25469 ft | 464 kts | 139° |
| 2026-05-04 22:36 | 19.67647 | -85.56591 | 25828 ft | 467 kts | 139° |
| 2026-05-04 22:36 | 19.65204 | -85.54297 | 26172 ft | 470 kts | 139° |
| 2026-05-04 22:36 | 19.62750 | -85.51994 | 26510 ft | 473 kts | 139° |
| 2026-05-04 22:37 | 19.60283 | -85.49680 | 26849 ft | 475 kts | 139° |
| 2026-05-04 22:37 | 19.57796 | -85.47348 | 27185 ft | 478 kts | 138° |
| 2026-05-04 22:37 | 19.55294 | -85.45003 | 27516 ft | 481 kts | 138° |
| 2026-05-04 22:37 | 19.52782 | -85.42649 | 27846 ft | 483 kts | 138° |
| 2026-05-04 22:38 | 19.50261 | -85.40287 | 28188 ft | 485 kts | 139° |
| 2026-05-04 22:38 | 19.47722 | -85.37911 | 28523 ft | 487 kts | 139° |
| 2026-05-04 22:38 | 19.45205 | -85.35556 | 28836 ft | 490 kts | 139° |
| 2026-05-04 22:38 | 19.42642 | -85.33159 | 29135 ft | 493 kts | 139° |
| 2026-05-04 22:39 | 19.40064 | -85.30750 | 29433 ft | 495 kts | 139° |
| 2026-05-04 22:39 | 19.37495 | -85.28348 | 30037 ft | 489 kts | 139° |
| 2026-05-04 22:39 | 19.34947 | -85.25969 | 30410 ft | 489 kts | 139° |
| 2026-05-04 22:39 | 19.32383 | -85.23576 | 30603 ft | 493 kts | 139° |
| 2026-05-04 22:40 | 19.29803 | -85.21168 | 30840 ft | 495 kts | 140° |
| 2026-05-04 22:40 | 19.27220 | -85.18760 | 31176 ft | 494 kts | 140° |
| 2026-05-04 22:40 | 19.24645 | -85.16358 | 31597 ft | 492 kts | 140° |
| 2026-05-04 22:40 | 19.22087 | -85.13973 | 32034 ft | 489 kts | 140° |
| 2026-05-04 22:41 | 19.19539 | -85.11599 | 32448 ft | 487 kts | 141° |
| 2026-05-04 22:41 | 19.16994 | -85.09229 | 32808 ft | 486 kts | 141° |
| 2026-05-04 22:41 | 19.14486 | -85.06895 | 33164 ft | 485 kts | 141° |
| 2026-05-04 22:41 | 19.11955 | -85.04540 | 33556 ft | 484 kts | 141° |
| 2026-05-04 22:42 | 19.09431 | -85.02192 | 33974 ft | 481 kts | 142° |
| 2026-05-04 22:42 | 19.06926 | -84.99863 | 34337 ft | 479 kts | 142° |
| 2026-05-04 22:42 | 19.04422 | -84.97536 | 34595 ft | 479 kts | 142° |
| 2026-05-04 22:42 | 19.01907 | -84.95201 | 34837 ft | 480 kts | 142° |
| 2026-05-04 22:43 | 18.99402 | -84.92876 | 35113 ft | 479 kts | 142° |
| 2026-05-04 22:43 | 18.96900 | -84.90554 | 35409 ft | 478 kts | 142° |
| 2026-05-04 22:43 | 18.94402 | -84.88236 | 35694 ft | 477 kts | 142° |
| 2026-05-04 22:43 | 18.91937 | -84.85951 | 35943 ft | 477 kts | 142° |
| 2026-05-04 22:44 | 18.89441 | -84.83636 | 36211 ft | 477 kts | 143° |
| 2026-05-04 22:44 | 18.86953 | -84.81331 | 36505 ft | 476 kts | 143° |
| 2026-05-04 22:44 | 18.84464 | -84.79025 | 36788 ft | 475 kts | 143° |
| 2026-05-04 22:44 | 18.81979 | -84.76725 | 36979 ft | 476 kts | 143° |
| 2026-05-04 22:45 | 18.79475 | -84.74410 | 36958 ft | 480 kts | 143° |
| 2026-05-04 22:45 | 18.71966 | -84.67465 | 36956 ft | 476 kts | 143° |
| 2026-05-04 22:46 | 18.67030 | -84.62902 | 36968 ft | 469 kts | 143° |
| 2026-05-04 22:46 | 18.62930 | -84.59117 | 36957 ft | 466 kts | 143° |
| 2026-05-04 22:47 | 18.58096 | -84.54659 | 36965 ft | 463 kts | 143° |
| 2026-05-04 22:47 | 18.53186 | -84.50217 | 36969 ft | 467 kts | 148° |
| 2026-05-04 22:48 | 18.47540 | -84.46927 | 36979 ft | 464 kts | 160° |
| 2026-05-04 22:48 | 18.41618 | -84.44131 | 36967 ft | 467 kts | 160° |
| 2026-05-04 22:49 | 18.35711 | -84.41329 | 36964 ft | 467 kts | 160° |
| 2026-05-04 22:49 | 18.29850 | -84.38501 | 36963 ft | 460 kts | 160° |
| 2026-05-04 22:50 | 18.24027 | -84.35677 | 36968 ft | 461 kts | 160° |
| 2026-05-04 22:50 | 18.18184 | -84.32844 | 36970 ft | 461 kts | 160° |
| 2026-05-04 22:51 | 18.12348 | -84.30017 | 36964 ft | 462 kts | 160° |
| 2026-05-04 22:51 | 18.06537 | -84.27204 | 36968 ft | 462 kts | 160° |
| 2026-05-04 22:52 | 18.00690 | -84.24376 | 36967 ft | 463 kts | 160° |
| 2026-05-04 22:52 | 17.94826 | -84.21542 | 36968 ft | 463 kts | 160° |
| 2026-05-04 22:53 | 17.88969 | -84.18714 | 36964 ft | 463 kts | 160° |
| 2026-05-04 22:53 | 17.83138 | -84.15900 | 36965 ft | 463 kts | 160° |
| 2026-05-04 22:54 | 17.77269 | -84.13069 | 36964 ft | 464 kts | 160° |
| 2026-05-04 22:54 | 17.71403 | -84.10243 | 36964 ft | 464 kts | 160° |
| 2026-05-04 22:55 | 17.65533 | -84.07416 | 36950 ft | 464 kts | 160° |
| 2026-05-04 22:55 | 17.59702 | -84.04610 | 36962 ft | 463 kts | 160° |
| 2026-05-04 22:56 | 17.53839 | -84.01791 | 36965 ft | 463 kts | 160° |
| 2026-05-04 22:56 | 17.47985 | -83.98978 | 36962 ft | 463 kts | 160° |
| 2026-05-04 22:57 | 17.42122 | -83.96163 | 36961 ft | 463 kts | 160° |
| 2026-05-04 22:57 | 17.36263 | -83.93352 | 36962 ft | 463 kts | 160° |
| 2026-05-04 22:58 | 17.30404 | -83.90542 | 36957 ft | 463 kts | 160° |
| 2026-05-04 22:58 | 17.24554 | -83.87739 | 36962 ft | 462 kts | 159° |
| 2026-05-04 22:59 | 17.18698 | -83.84936 | 36961 ft | 462 kts | 159° |
| 2026-05-04 22:59 | 17.12888 | -83.82155 | 36962 ft | 462 kts | 159° |
| 2026-05-04 23:00 | 17.07039 | -83.79359 | 36960 ft | 462 kts | 160° |
| 2026-05-04 23:00 | 17.01194 | -83.76566 | 36962 ft | 462 kts | 160° |
| 2026-05-04 23:01 | 16.95333 | -83.73768 | 36959 ft | 462 kts | 160° |
| 2026-05-04 23:01 | 16.89489 | -83.70979 | 36955 ft | 462 kts | 159° |
| 2026-05-04 23:02 | 16.83641 | -83.68190 | 36960 ft | 462 kts | 159° |
| 2026-05-04 23:02 | 16.77791 | -83.65403 | 36956 ft | 462 kts | 159° |
| 2026-05-04 23:03 | 16.71969 | -83.62631 | 36956 ft | 462 kts | 159° |
| 2026-05-04 23:03 | 16.66101 | -83.59838 | 36954 ft | 463 kts | 159° |
| 2026-05-04 23:04 | 16.60234 | -83.57048 | 36953 ft | 463 kts | 159° |
| 2026-05-04 23:04 | 16.54409 | -83.54280 | 36956 ft | 463 kts | 159° |
| 2026-05-04 23:05 | 16.48546 | -83.51496 | 36951 ft | 463 kts | 159° |
| 2026-05-04 23:05 | 16.42683 | -83.48713 | 36954 ft | 462 kts | 159° |
| 2026-05-04 23:06 | 16.36821 | -83.45933 | 36950 ft | 462 kts | 159° |
| 2026-05-04 23:06 | 16.30995 | -83.43171 | 36951 ft | 462 kts | 159° |
| 2026-05-04 23:07 | 16.25139 | -83.40397 | 36950 ft | 462 kts | 159° |
| 2026-05-04 23:07 | 16.19317 | -83.37641 | 36951 ft | 461 kts | 159° |
| 2026-05-04 23:08 | 16.13460 | -83.34870 | 36949 ft | 461 kts | 159° |
| 2026-05-04 23:08 | 16.07621 | -83.32109 | 36948 ft | 460 kts | 159° |
| 2026-05-04 23:09 | 16.01792 | -83.29336 | 36949 ft | 460 kts | 159° |
| 2026-05-04 23:09 | 15.95983 | -83.26536 | 36948 ft | 460 kts | 158° |
| 2026-05-04 23:10 | 15.90166 | -83.23729 | 36945 ft | 460 kts | 158° |
| 2026-05-04 23:10 | 15.84396 | -83.20951 | 36949 ft | 460 kts | 158° |
| 2026-05-04 23:11 | 15.78588 | -83.18158 | 36943 ft | 459 kts | 158° |
| 2026-05-04 23:11 | 15.72783 | -83.15371 | 36947 ft | 459 kts | 158° |
| 2026-05-04 23:12 | 15.66985 | -83.12588 | 36944 ft | 459 kts | 158° |
| 2026-05-04 23:12 | 15.61189 | -83.09807 | 36945 ft | 458 kts | 158° |
| 2026-05-04 23:13 | 15.55394 | -83.07029 | 36945 ft | 458 kts | 158° |
| 2026-05-04 23:13 | 15.49650 | -83.04277 | 36945 ft | 458 kts | 158° |
| 2026-05-04 23:14 | 15.43862 | -83.01505 | 36942 ft | 458 kts | 158° |
| 2026-05-04 23:14 | 15.38078 | -82.98737 | 36942 ft | 457 kts | 158° |
| 2026-05-04 23:15 | 15.32292 | -82.95970 | 36942 ft | 457 kts | 158° |
| 2026-05-04 23:15 | 15.26509 | -82.93206 | 36942 ft | 457 kts | 158° |
| 2026-05-04 23:16 | 15.20765 | -82.90463 | 36942 ft | 457 kts | 158° |
| 2026-05-04 23:16 | 15.14976 | -82.87699 | 36945 ft | 457 kts | 158° |
| 2026-05-04 23:17 | 15.09191 | -82.84939 | 36941 ft | 457 kts | 158° |
| 2026-05-04 23:17 | 15.03413 | -82.82184 | 36942 ft | 456 kts | 158° |
| 2026-05-04 23:18 | 14.97648 | -82.79437 | 36942 ft | 456 kts | 158° |
| 2026-05-04 23:18 | 14.91921 | -82.76709 | 36941 ft | 456 kts | 158° |
| 2026-05-04 23:19 | 14.86158 | -82.73967 | 36944 ft | 455 kts | 158° |
| 2026-05-04 23:19 | 14.80401 | -82.71228 | 36941 ft | 455 kts | 158° |
| 2026-05-04 23:20 | 14.74658 | -82.68498 | 36942 ft | 454 kts | 158° |
| 2026-05-04 23:20 | 14.68921 | -82.65772 | 36936 ft | 453 kts | 158° |
| 2026-05-04 23:21 | 14.63230 | -82.63069 | 36936 ft | 452 kts | 158° |
| 2026-05-04 23:21 | 14.57517 | -82.60358 | 36938 ft | 451 kts | 158° |
| 2026-05-04 23:22 | 14.51817 | -82.57655 | 36941 ft | 450 kts | 158° |
| 2026-05-04 23:22 | 14.46127 | -82.54957 | 36943 ft | 449 kts | 158° |
| 2026-05-04 23:23 | 14.40482 | -82.52283 | 36942 ft | 449 kts | 158° |
| 2026-05-04 23:23 | 14.34799 | -82.49592 | 36941 ft | 449 kts | 158° |
| 2026-05-04 23:24 | 14.29116 | -82.46901 | 36941 ft | 449 kts | 158° |
| 2026-05-04 23:24 | 14.23429 | -82.44222 | 36938 ft | 449 kts | 158° |
| 2026-05-04 23:25 | 14.17729 | -82.41650 | 36939 ft | 449 kts | 159° |
| 2026-05-04 23:25 | 14.11981 | -82.39089 | 36937 ft | 450 kts | 159° |
| 2026-05-04 23:26 | 14.06237 | -82.36520 | 36943 ft | 450 kts | 159° |
| 2026-05-04 23:26 | 14.00483 | -82.33939 | 36936 ft | 451 kts | 158° |
| 2026-05-04 23:27 | 13.94764 | -82.31371 | 36935 ft | 451 kts | 158° |
| 2026-05-04 23:27 | 13.89018 | -82.28792 | 36933 ft | 450 kts | 159° |
| 2026-05-04 23:28 | 13.83269 | -82.26213 | 36933 ft | 450 kts | 159° |
| 2026-05-04 23:28 | 13.77520 | -82.23637 | 36931 ft | 450 kts | 159° |
| 2026-05-04 23:29 | 13.71809 | -82.21078 | 36927 ft | 450 kts | 158° |
| 2026-05-04 23:29 | 13.66072 | -82.18510 | 36929 ft | 449 kts | 158° |
| 2026-05-04 23:30 | 13.60347 | -82.15948 | 36933 ft | 448 kts | 158° |
| 2026-05-04 23:30 | 13.54632 | -82.13391 | 36933 ft | 447 kts | 158° |
| 2026-05-04 23:31 | 13.48924 | -82.10840 | 36933 ft | 446 kts | 158° |
| 2026-05-04 23:31 | 13.43228 | -82.08295 | 36935 ft | 446 kts | 158° |
| 2026-05-04 23:32 | 13.37572 | -82.05770 | 36931 ft | 445 kts | 158° |
| 2026-05-04 23:32 | 13.31888 | -82.03233 | 36937 ft | 444 kts | 158° |
| 2026-05-04 23:33 | 13.26219 | -82.00704 | 36930 ft | 444 kts | 158° |
| 2026-05-04 23:33 | 13.21513 | -81.98605 | 36929 ft | 443 kts | 158° |
| 2026-05-04 23:34 | 13.15859 | -81.96085 | 36929 ft | 443 kts | 158° |
| 2026-05-04 23:34 | 13.10203 | -81.93566 | 36932 ft | 442 kts | 158° |
| 2026-05-04 23:35 | 13.04548 | -81.91048 | 36929 ft | 442 kts | 158° |
| 2026-05-04 23:35 | 12.98942 | -81.88553 | 36931 ft | 442 kts | 158° |
| 2026-05-04 23:36 | 12.93298 | -81.86043 | 36933 ft | 442 kts | 158° |
| 2026-05-04 23:36 | 12.87655 | -81.83534 | 36932 ft | 441 kts | 158° |
| 2026-05-04 23:37 | 12.82016 | -81.81028 | 36928 ft | 441 kts | 158° |
| 2026-05-04 23:37 | 12.76383 | -81.78526 | 36929 ft | 441 kts | 158° |
| 2026-05-04 23:38 | 12.70757 | -81.76028 | 36931 ft | 440 kts | 158° |
| 2026-05-04 23:38 | 12.65168 | -81.73547 | 36913 ft | 440 kts | 158° |
| 2026-05-04 23:39 | 12.59546 | -81.71054 | 36919 ft | 440 kts | 158° |
| 2026-05-04 23:39 | 12.54076 | -81.68228 | 36920 ft | 440 kts | 152° |
| 2026-05-04 23:40 | 12.48767 | -81.65097 | 36909 ft | 440 kts | 151° |
| 2026-05-04 23:40 | 12.43494 | -81.61981 | 36914 ft | 440 kts | 152° |
| 2026-05-04 23:41 | 12.38183 | -81.58887 | 36917 ft | 439 kts | 152° |
| 2026-05-04 23:41 | 12.32864 | -81.55814 | 36926 ft | 439 kts | 152° |
| 2026-05-04 23:42 | 12.27542 | -81.52746 | 36928 ft | 439 kts | 152° |
| 2026-05-04 23:42 | 12.22217 | -81.49678 | 36923 ft | 438 kts | 152° |
| 2026-05-04 23:43 | 12.16930 | -81.46632 | 36924 ft | 438 kts | 152° |
| 2026-05-04 23:43 | 12.11610 | -81.43569 | 36927 ft | 438 kts | 152° |
| 2026-05-04 23:44 | 12.06298 | -81.40511 | 36927 ft | 438 kts | 152° |
| 2026-05-04 23:44 | 12.00986 | -81.37455 | 36920 ft | 438 kts | 152° |
| 2026-05-04 23:45 | 11.95700 | -81.34415 | 36918 ft | 438 kts | 152° |
| 2026-05-04 23:45 | 11.90387 | -81.31361 | 36922 ft | 437 kts | 152° |
| 2026-05-04 23:46 | 11.85085 | -81.28314 | 36924 ft | 437 kts | 152° |
| 2026-05-04 23:46 | 11.79774 | -81.25264 | 36912 ft | 437 kts | 152° |
| 2026-05-04 23:47 | 11.74474 | -81.22222 | 36924 ft | 437 kts | 152° |
| 2026-05-04 23:47 | 11.69159 | -81.19172 | 36920 ft | 438 kts | 152° |
| 2026-05-04 23:48 | 11.63847 | -81.16125 | 36922 ft | 438 kts | 152° |
| 2026-05-04 23:48 | 11.58568 | -81.13099 | 36922 ft | 438 kts | 152° |
| 2026-05-04 23:49 | 11.53240 | -81.10046 | 36919 ft | 438 kts | 152° |
| 2026-05-04 23:49 | 11.47946 | -81.07013 | 36920 ft | 438 kts | 152° |
| 2026-05-04 23:50 | 11.42625 | -81.03967 | 36924 ft | 438 kts | 152° |
| 2026-05-04 23:50 | 11.37305 | -81.00922 | 36923 ft | 438 kts | 152° |
| 2026-05-04 23:51 | 11.32019 | -80.97898 | 36925 ft | 438 kts | 152° |
| 2026-05-04 23:51 | 11.26705 | -80.94860 | 36924 ft | 437 kts | 152° |
| 2026-05-04 23:52 | 11.21389 | -80.91821 | 36919 ft | 437 kts | 152° |
| 2026-05-04 23:52 | 11.16079 | -80.88788 | 36926 ft | 437 kts | 152° |
| 2026-05-04 23:53 | 11.10809 | -80.85778 | 36928 ft | 437 kts | 152° |
| 2026-05-04 23:53 | 11.05507 | -80.82752 | 36919 ft | 436 kts | 152° |
| 2026-05-04 23:54 | 11.00204 | -80.79726 | 36921 ft | 436 kts | 152° |
| 2026-05-04 23:54 | 10.94915 | -80.76709 | 36921 ft | 435 kts | 152° |
| 2026-05-04 23:55 | 10.89623 | -80.73691 | 36919 ft | 435 kts | 152° |
| 2026-05-04 23:56 | 10.81713 | -80.69183 | 36568 ft | 436 kts | 152° |
| 2026-05-04 23:56 | 10.79088 | -80.67688 | 36249 ft | 430 kts | 152° |
| 2026-05-04 23:56 | 10.76488 | -80.66206 | 35874 ft | 426 kts | 151° |
| 2026-05-04 23:56 | 10.73910 | -80.64738 | 35481 ft | 424 kts | 151° |
| 2026-05-04 23:57 | 10.71346 | -80.63279 | 35096 ft | 421 kts | 151° |
| 2026-05-04 23:57 | 10.68838 | -80.61758 | 34690 ft | 419 kts | 143° |
| 2026-05-04 23:57 | 10.66813 | -80.59639 | 34253 ft | 418 kts | 127° |
| 2026-05-04 23:57 | 10.65079 | -80.57269 | 33813 ft | 418 kts | 126° |
| 2026-05-04 23:58 | 10.63364 | -80.54885 | 33387 ft | 416 kts | 126° |
| 2026-05-04 23:58 | 10.61660 | -80.52515 | 32986 ft | 414 kts | 127° |
| 2026-05-04 23:58 | 10.59961 | -80.50163 | 32596 ft | 412 kts | 127° |
| 2026-05-04 23:58 | 10.58284 | -80.47857 | 32216 ft | 410 kts | 127° |
| 2026-05-04 23:59 | 10.56590 | -80.45538 | 31833 ft | 408 kts | 127° |
| 2026-05-04 23:59 | 10.54898 | -80.43229 | 31446 ft | 407 kts | 127° |
| 2026-05-04 23:59 | 10.53204 | -80.40924 | 31062 ft | 405 kts | 127° |
| 2026-05-04 23:59 | 10.51516 | -80.38628 | 30683 ft | 405 kts | 127° |
| 2026-05-05 00:00 | 10.49831 | -80.36338 | 30298 ft | 404 kts | 127° |
| 2026-05-05 00:00 | 10.49285 | -80.35595 | 30174 ft | 404 kts | 127° |
| 2026-05-05 00:00 | 10.46472 | -80.31773 | 29492 ft | 402 kts | 127° |
| 2026-05-05 00:00 | 10.44800 | -80.29502 | 29078 ft | 400 kts | 126° |
| 2026-05-05 00:01 | 10.43139 | -80.27245 | 28673 ft | 397 kts | 126° |
| 2026-05-05 00:01 | 10.41510 | -80.25033 | 28292 ft | 395 kts | 126° |
| 2026-05-05 00:01 | 10.39868 | -80.22804 | 27909 ft | 393 kts | 126° |
| 2026-05-05 00:01 | 10.38235 | -80.20587 | 27533 ft | 391 kts | 126° |
| 2026-05-05 00:02 | 10.36612 | -80.18384 | 27147 ft | 389 kts | 126° |
| 2026-05-05 00:02 | 10.34995 | -80.16189 | 26773 ft | 387 kts | 126° |
| 2026-05-05 00:02 | 10.33382 | -80.14001 | 26386 ft | 386 kts | 126° |
| 2026-05-05 00:02 | 10.31773 | -80.11819 | 25999 ft | 384 kts | 126° |
| 2026-05-05 00:03 | 10.30175 | -80.09651 | 25620 ft | 383 kts | 126° |
| 2026-05-05 00:03 | 10.28580 | -80.07488 | 25249 ft | 382 kts | 126° |
| 2026-05-05 00:03 | 10.26988 | -80.05330 | 24863 ft | 381 kts | 126° |
| 2026-05-05 00:03 | 10.25419 | -80.03203 | 24480 ft | 381 kts | 126° |
| 2026-05-05 00:04 | 10.23835 | -80.01057 | 24108 ft | 380 kts | 126° |
| 2026-05-05 00:04 | 10.22247 | -79.98904 | 23723 ft | 380 kts | 126° |
| 2026-05-05 00:04 | 10.20665 | -79.96761 | 23317 ft | 379 kts | 126° |
| 2026-05-05 00:04 | 10.19081 | -79.94615 | 22884 ft | 378 kts | 126° |
| 2026-05-05 00:05 | 10.17509 | -79.92487 | 22519 ft | 375 kts | 126° |
| 2026-05-05 00:05 | 10.15943 | -79.90367 | 22138 ft | 373 kts | 126° |
| 2026-05-05 00:05 | 10.14392 | -79.88267 | 21770 ft | 371 kts | 126° |
| 2026-05-05 00:05 | 10.12849 | -79.86179 | 21404 ft | 368 kts | 126° |
| 2026-05-05 00:06 | 10.11318 | -79.84107 | 21037 ft | 366 kts | 126° |
| 2026-05-05 00:06 | 10.09795 | -79.82046 | 20667 ft | 364 kts | 126° |
| 2026-05-05 00:06 | 10.08274 | -79.79989 | 20315 ft | 362 kts | 126° |
| 2026-05-05 00:06 | 10.06765 | -79.77949 | 19952 ft | 360 kts | 125° |
| 2026-05-05 00:07 | 10.05263 | -79.75918 | 19587 ft | 359 kts | 125° |
| 2026-05-05 00:07 | 10.03778 | -79.73909 | 19226 ft | 352 kts | 125° |
| 2026-05-05 00:07 | 10.02319 | -79.71939 | 18882 ft | 345 kts | 125° |
| 2026-05-05 00:07 | 10.00892 | -79.70010 | 18532 ft | 337 kts | 124° |
| 2026-05-05 00:08 | 9.99516 | -79.68151 | 18204 ft | 331 kts | 124° |
| 2026-05-05 00:08 | 9.98138 | -79.66289 | 17940 ft | 327 kts | 124° |
| 2026-05-05 00:08 | 9.96774 | -79.64445 | 17605 ft | 325 kts | 125° |
| 2026-05-05 00:08 | 9.95420 | -79.62614 | 17289 ft | 323 kts | 124° |
| 2026-05-05 00:09 | 9.94073 | -79.60795 | 16965 ft | 322 kts | 125° |
| 2026-05-05 00:09 | 9.92734 | -79.58985 | 16647 ft | 320 kts | 125° |
| 2026-05-05 00:09 | 9.91399 | -79.57182 | 16326 ft | 318 kts | 125° |
| 2026-05-05 00:09 | 9.90073 | -79.55391 | 16008 ft | 316 kts | 125° |
| 2026-05-05 00:10 | 9.88754 | -79.53611 | 15684 ft | 315 kts | 125° |
| 2026-05-05 00:10 | 9.87440 | -79.51839 | 15376 ft | 314 kts | 125° |
| 2026-05-05 00:10 | 9.85971 | -79.50216 | 15009 ft | 315 kts | 142° |
| 2026-05-05 00:10 | 9.84052 | -79.49165 | 14639 ft | 318 kts | 154° |
| 2026-05-05 00:11 | 9.82022 | -79.48250 | 14202 ft | 321 kts | 154° |
| 2026-05-05 00:11 | 9.79969 | -79.47346 | 13778 ft | 323 kts | 155° |
| 2026-05-05 00:11 | 9.77904 | -79.46435 | 13323 ft | 324 kts | 155° |
| 2026-05-05 00:11 | 9.75842 | -79.45519 | 12882 ft | 324 kts | 154° |
| 2026-05-05 00:12 | 9.73786 | -79.44599 | 12604 ft | 319 kts | 154° |
| 2026-05-05 00:12 | 9.71793 | -79.43704 | 12558 ft | 307 kts | 154° |
| 2026-05-05 00:12 | 9.69883 | -79.42843 | 12542 ft | 294 kts | 154° |
| 2026-05-05 00:12 | 9.68057 | -79.42018 | 12539 ft | 281 kts | 154° |
| 2026-05-05 00:13 | 9.66314 | -79.41230 | 12531 ft | 269 kts | 154° |
| 2026-05-05 00:13 | 9.64646 | -79.40476 | 12542 ft | 256 kts | 153° |
| 2026-05-05 00:13 | 9.63041 | -79.39750 | 12543 ft | 250 kts | 153° |
| 2026-05-05 00:13 | 9.61464 | -79.39036 | 12549 ft | 247 kts | 153° |
| 2026-05-05 00:14 | 9.59886 | -79.38322 | 12565 ft | 250 kts | 153° |
| 2026-05-05 00:14 | 9.58289 | -79.37599 | 12603 ft | 253 kts | 153° |
| 2026-05-05 00:14 | 9.56672 | -79.36867 | 12638 ft | 260 kts | 153° |
| 2026-05-05 00:14 | 9.54947 | -79.36079 | 12666 ft | 290 kts | 153° |
| 2026-05-05 00:15 | 9.53055 | -79.35208 | 12638 ft | 303 kts | 153° |
| 2026-05-05 00:15 | 9.51127 | -79.34318 | 12618 ft | 304 kts | 153° |
| 2026-05-05 00:15 | 9.49287 | -79.33299 | 12603 ft | 300 kts | 140° |
| 2026-05-05 00:15 | 9.47712 | -79.31937 | 12619 ft | 297 kts | 136° |
| 2026-05-05 00:16 | 9.46163 | -79.30543 | 12608 ft | 297 kts | 137° |
| 2026-05-05 00:16 | 9.44605 | -79.29172 | 12614 ft | 297 kts | 137° |
| 2026-05-05 00:16 | 9.43019 | -79.27812 | 12609 ft | 298 kts | 138° |
| 2026-05-05 00:16 | 9.41422 | -79.26468 | 12598 ft | 299 kts | 139° |
| 2026-05-05 00:17 | 9.39836 | -79.25150 | 12606 ft | 299 kts | 139° |
| 2026-05-05 00:17 | 9.38224 | -79.23821 | 12606 ft | 299 kts | 139° |
| 2026-05-05 00:17 | 9.36606 | -79.22491 | 12601 ft | 300 kts | 139° |
| 2026-05-05 00:17 | 9.34980 | -79.21158 | 12595 ft | 300 kts | 139° |
| 2026-05-05 00:18 | 9.33351 | -79.19824 | 12598 ft | 300 kts | 139° |
| 2026-05-05 00:18 | 9.31724 | -79.18493 | 12605 ft | 300 kts | 139° |
| 2026-05-05 00:18 | 9.30094 | -79.17160 | 12604 ft | 301 kts | 139° |
| 2026-05-05 00:18 | 9.28457 | -79.15835 | 12604 ft | 301 kts | 142° |
| 2026-05-05 00:19 | 9.26583 | -79.14966 | 12594 ft | 306 kts | 167° |
| 2026-05-05 00:19 | 9.24452 | -79.15000 | 12587 ft | 311 kts | 191° |
| 2026-05-05 00:19 | 9.22444 | -79.15856 | 12329 ft | 318 kts | 210° |
| 2026-05-05 00:19 | 9.20571 | -79.17091 | 11979 ft | 321 kts | 212° |
| 2026-05-05 00:20 | 9.18721 | -79.18369 | 11595 ft | 322 kts | 212° |
| 2026-05-05 00:20 | 9.16870 | -79.19650 | 11205 ft | 323 kts | 212° |
| 2026-05-05 00:20 | 9.15023 | -79.20915 | 10801 ft | 317 kts | 212° |
| 2026-05-05 00:20 | 9.13209 | -79.22147 | 10414 ft | 310 kts | 211° |
| 2026-05-05 00:21 | 9.11433 | -79.23344 | 10035 ft | 304 kts | 211° |
| 2026-05-05 00:21 | 9.09686 | -79.24518 | 9648 ft | 298 kts | 211° |
| 2026-05-05 00:21 | 9.07992 | -79.25652 | 9257 ft | 293 kts | 211° |
| 2026-05-05 00:21 | 9.06309 | -79.26778 | 8885 ft | 287 kts | 211° |
| 2026-05-05 00:22 | 9.04656 | -79.27884 | 8535 ft | 283 kts | 212° |
| 2026-05-05 00:22 | 9.03014 | -79.28980 | 8186 ft | 282 kts | 212° |
| 2026-05-05 00:22 | 9.01353 | -79.30035 | 7851 ft | 279 kts | 208° |
| 2026-05-05 00:22 | 9.00232 | -79.30664 | 7655 ft | 277 kts | 207° |
| 2026-05-05 00:23 | 8.98535 | -79.31585 | 7347 ft | 278 kts | 207° |
| 2026-05-05 00:23 | 8.96814 | -79.32515 | 7038 ft | 283 kts | 207° |
| 2026-05-05 00:23 | 8.95076 | -79.33461 | 6689 ft | 281 kts | 207° |
| 2026-05-05 00:23 | 8.93370 | -79.34397 | 6371 ft | 276 kts | 208° |
| 2026-05-05 00:24 | 8.91704 | -79.35314 | 6061 ft | 271 kts | 208° |
| 2026-05-05 00:24 | 8.90047 | -79.36228 | 5753 ft | 269 kts | 208° |
| 2026-05-05 00:24 | 8.88427 | -79.37123 | 5450 ft | 267 kts | 208° |
| 2026-05-05 00:24 | 8.86799 | -79.38021 | 5158 ft | 266 kts | 208° |
| 2026-05-05 00:25 | 8.85290 | -79.39075 | 4846 ft | 264 kts | 229° |
| 2026-05-05 00:25 | 8.84481 | -79.40689 | 4564 ft | 256 kts | 260° |
| 2026-05-05 00:25 | 8.84536 | -79.42452 | 4275 ft | 249 kts | 288° |
| 2026-05-05 00:25 | 8.85296 | -79.43973 | 4005 ft | 240 kts | 310° |
| 2026-05-05 00:26 | 8.86493 | -79.45096 | 3744 ft | 232 kts | 324° |
| 2026-05-05 00:26 | 8.87779 | -79.46053 | 3484 ft | 227 kts | 325° |
| 2026-05-05 00:26 | 8.89058 | -79.46947 | 3221 ft | 220 kts | 334° |
| 2026-05-05 00:26 | 8.90498 | -79.47180 | 3035 ft | 209 kts | 14° |
| 2026-05-05 00:27 | 8.91826 | -79.46578 | 2810 ft | 213 kts | 28° |
| 2026-05-05 00:27 | 8.93134 | -79.45869 | 2535 ft | 218 kts | 28° |
| 2026-05-05 00:27 | 8.94468 | -79.45123 | 2246 ft | 221 kts | 29° |
| 2026-05-05 00:27 | 8.95806 | -79.44361 | 1975 ft | 220 kts | 29° |
| 2026-05-05 00:28 | 8.97118 | -79.43613 | 1691 ft | 211 kts | 29° |
| 2026-05-05 00:28 | 8.98374 | -79.42907 | 1386 ft | 202 kts | 29° |
| 2026-05-05 00:28 | 8.99554 | -79.42229 | 1141 ft | 188 kts | 28° |
| 2026-05-05 00:28 | 9.00657 | -79.41605 | 954 ft | 174 kts | 28° |
| 2026-05-05 00:29 | 9.01650 | -79.41038 | 851 ft | 152 kts | 30° |
| 2026-05-05 00:29 | 9.02505 | -79.40541 | 648 ft | 135 kts | 28° |
| 2026-05-05 00:29 | 9.03300 | -79.40096 | 374 ft | 126 kts | 29° |
| 2026-05-05 00:29 | 9.04072 | -79.39656 | 204 ft | 128 kts | 30° |
| 2026-05-05 00:30 | 9.04837 | -79.39221 | 60 ft | 125 kts | 30° |
| 2026-05-05 00:30 | 9.05536 | -79.38821 | 30 ft | 101 kts | 29° |
| 2026-05-05 00:30 | 9.06040 | -79.38531 | 31 ft | 66 kts | 30° |
| 2026-05-05 00:30 | 9.06320 | -79.38381 | 29 ft | 24 kts | 17° |
| 2026-05-05 00:31 | 9.06472 | -79.38375 | 29 ft | 14 kts | 359° |
| 2026-05-05 00:31 | 9.06494 | -79.38376 | 29 ft | 0 kts | 359° |
| 2026-05-05 00:31 | 9.06502 | -79.38376 | 29 ft | 3 kts | 359° |
| 2026-05-05 00:32 | 9.06528 | -79.38376 | 29 ft | 4 kts | 360° |
| 2026-05-05 00:32 | 9.06577 | -79.38376 | 29 ft | 9 kts | 360° |
| 2026-05-05 00:32 | 9.06632 | -79.38394 | 29 ft | 8 kts | 330° |
| 2026-05-05 00:32 | 9.06664 | -79.38441 | 29 ft | 8 kts | 275° |
| 2026-05-05 00:33 | 9.06617 | -79.38485 | 29 ft | 15 kts | 204° |
| 2026-05-05 00:33 | 9.06534 | -79.38534 | 29 ft | 9 kts | 239° |
| 2026-05-05 00:33 | 9.06548 | -79.38592 | 29 ft | 9 kts | 299° |
| 2026-05-05 00:33 | 9.06569 | -79.38628 | 29 ft | 3 kts | 300° |
| 2026-05-05 00:34 | 9.06570 | -79.38631 | 29 ft | 0 kts | 300° |